createdAt,value
2019-01-03T00:01:03.460Z,7.92
2019-01-03T00:03:52.494Z,8.03
2019-01-03T00:24:53.733Z,6.37
2019-01-03T00:27:42.764Z,6.65
2019-01-03T00:33:38.513Z,6.75
2019-01-03T00:36:35.778Z,8.00
2019-01-03T00:39:45.096Z,7.90
2019-01-03T00:42:34.130Z,7.75
2019-01-03T00:45:14.251Z,6.58
2019-01-03T00:48:03.281Z,7.17
2019-01-03T00:50:52.374Z,9.48
2019-01-03T00:53:41.571Z,7.00
2019-01-03T00:56:30.654Z,6.90
2019-01-03T00:59:19.734Z,7.65
2019-01-03T01:02:08.835Z,7.83
2019-01-03T01:04:57.865Z,6.25
2019-01-03T01:07:47.144Z,6.42
2019-01-03T01:10:36.211Z,7.00
2019-01-03T01:16:31.251Z,5.95
2019-01-03T01:21:59.488Z,6.75
2019-01-03T01:25:07.227Z,7.60
2019-01-03T01:31:01.822Z,6.95
2019-01-03T01:36:44.973Z,6.65
2019-01-03T01:39:33.981Z,6.70
2019-01-03T01:42:26.313Z,7.65
2019-01-03T01:51:17.377Z,7.53
2019-01-03T01:54:06.442Z,7.62
2019-01-03T01:56:55.533Z,7.15
2019-01-03T01:59:44.629Z,6.75
2019-01-03T02:02:33.679Z,6.50
2019-01-03T02:05:22.669Z,7.53
2019-01-03T02:08:30.572Z,7.45
2019-01-03T02:11:19.607Z,7.60
2019-01-03T02:14:08.713Z,6.65
2019-01-03T02:16:57.769Z,7.12
2019-01-03T02:19:47.854Z,6.70
2019-01-03T02:22:36.870Z,7.22
2019-01-03T02:25:26.417Z,6.83
2019-01-03T02:28:15.536Z,7.40
2019-01-03T02:31:04.620Z,7.33
2019-01-03T02:33:53.650Z,8.18
2019-01-03T02:36:49.770Z,8.75
2019-01-03T02:39:38.788Z,7.97
2019-01-03T02:42:27.937Z,7.30
2019-01-03T02:45:17.016Z,7.42
2019-01-03T02:48:04.669Z,7.40
2019-01-03T02:50:53.714Z,7.55
2019-01-03T02:53:42.748Z,6.90
2019-01-03T03:20:49.609Z,7.75
2019-01-03T03:23:57.355Z,7.58
2019-01-03T03:26:38.783Z,7.58
2019-01-03T03:29:28.002Z,6.62
2019-01-03T03:32:17.049Z,7.37
2019-01-03T03:35:24.807Z,6.00
2019-01-03T03:38:14.053Z,7.30
2019-01-03T03:41:21.693Z,6.92
2019-01-03T03:44:10.897Z,7.90
2019-01-03T03:46:59.893Z,7.00
2019-01-03T03:50:07.690Z,6.25
2019-01-03T03:52:56.798Z,6.70
2019-01-03T03:55:45.878Z,7.15
2019-01-03T03:58:34.853Z,7.30
2019-01-03T04:01:23.940Z,6.90
2019-01-03T04:07:10.759Z,6.37
2019-01-03T04:12:53.817Z,7.12
2019-01-03T04:15:38.141Z,7.10
2019-01-03T04:18:27.224Z,7.00
2019-01-03T04:21:16.264Z,7.42
2019-01-03T04:45:10.929Z,7.53
2019-01-03T04:47:59.899Z,7.42
2019-01-03T04:50:49.089Z,7.65
2019-01-03T04:53:38.440Z,8.08
2019-01-03T04:56:24.725Z,8.65
2019-01-03T04:59:13.859Z,8.00
2019-01-03T05:02:21.718Z,8.68
2019-01-03T05:05:10.761Z,8.48
2019-01-03T05:07:59.830Z,7.05
2019-01-03T05:11:07.587Z,6.85
2019-01-03T05:13:56.796Z,7.35
2019-01-03T05:16:45.775Z,7.25
2019-01-03T05:22:29.678Z,7.47
2019-01-03T05:25:18.739Z,7.80
2019-01-03T05:31:15.729Z,11.40
2019-01-03T05:34:04.750Z,9.15
2019-01-03T05:37:12.414Z,9.25
2019-01-03T05:40:01.411Z,7.90
2019-01-03T05:42:50.568Z,6.72
2019-01-03T05:45:31.842Z,6.67
2019-01-03T06:03:50.331Z,6.20
2019-01-03T06:06:39.338Z,5.90
2019-01-03T06:09:28.943Z,6.40
2019-01-03T06:15:16.294Z,6.72
2019-01-03T06:18:24.143Z,6.35
2019-01-03T06:21:13.264Z,5.78
2019-01-03T06:26:47.933Z,6.67
2019-01-03T06:29:36.936Z,6.45
2019-01-03T06:32:46.209Z,7.37
2019-01-03T06:35:35.234Z,6.22
2019-01-03T06:38:44.519Z,7.62
2019-01-03T06:41:33.617Z,6.80
2019-01-03T06:44:22.720Z,7.10
2019-01-03T06:47:31.946Z,8.10
2019-01-03T06:50:21.079Z,8.25
2019-01-03T06:53:10.179Z,8.30
2019-01-03T06:55:51.397Z,8.60
2019-01-03T06:58:40.409Z,7.70
2019-01-03T07:01:29.546Z,7.50
2019-01-03T07:04:19.048Z,8.00
2019-01-03T07:07:08.265Z,8.80
2019-01-03T07:09:57.258Z,9.78
2019-01-03T07:12:46.346Z,9.55
2019-01-03T07:15:54.194Z,11.50
2019-01-03T07:18:43.318Z,11.38
2019-01-03T07:21:32.299Z,10.70
2019-01-03T07:24:13.878Z,11.30
2019-01-03T07:27:02.972Z,10.00
2019-01-03T07:29:52.786Z,11.50
2019-01-03T07:32:41.792Z,9.60
2019-01-03T07:35:50.861Z,10.72
2019-01-03T07:38:40.413Z,9.30
2019-01-03T07:41:29.336Z,10.70
2019-01-03T07:47:42.256Z,9.60
2019-01-03T07:50:49.974Z,10.00
2019-01-03T07:53:35.374Z,9.43
2019-01-03T07:56:24.362Z,9.67
2019-01-03T07:59:33.739Z,11.00
2019-01-03T08:02:43.013Z,9.77
2019-01-03T08:05:32.198Z,10.17
2019-01-03T08:08:41.273Z,9.20
2019-01-03T08:11:50.418Z,10.15
2019-01-03T08:14:58.709Z,13.13
2019-01-03T08:17:40.330Z,10.83
2019-01-03T08:20:49.628Z,11.20
2019-01-03T08:26:32.040Z,9.53
2019-01-03T08:29:41.272Z,8.17
2019-01-03T08:32:23.092Z,8.27
2019-01-03T08:35:09.598Z,8.67
2019-01-03T08:41:00.712Z,8.20
2019-01-03T08:43:49.789Z,7.17
2019-01-03T08:47:02.366Z,7.80
2019-01-03T08:49:54.401Z,7.37
2019-01-03T08:58:47.005Z,21.15
2019-01-03T09:08:02.225Z,9.23
2019-01-03T09:17:25.945Z,9.83
2019-01-03T09:29:18.431Z,6.65
2019-01-03T09:35:16.062Z,6.90
2019-01-03T09:38:05.041Z,8.80
2019-01-03T09:43:55.294Z,9.40
2019-01-03T09:46:36.344Z,10.70
2019-01-03T09:49:06.831Z,9.43
2019-01-03T09:51:37.148Z,8.97
2019-01-03T09:54:07.468Z,9.00
2019-01-03T09:56:38.939Z,12.57
2019-01-03T10:02:23.863Z,11.40
2019-01-03T10:04:54.175Z,12.03
2019-01-03T10:07:24.486Z,13.33
2019-01-03T10:10:14.091Z,14.60
2019-01-03T10:12:44.416Z,12.83
2019-01-03T10:15:14.681Z,16.03
2019-01-03T10:17:45.112Z,13.67
2019-01-03T10:20:34.083Z,12.73
2019-01-03T10:23:04.507Z,12.53
2019-01-03T10:25:35.016Z,12.53
2019-01-03T10:31:11.495Z,12.87
2019-01-03T10:36:37.669Z,12.13
2019-01-03T10:42:28.391Z,11.27
2019-01-03T10:45:17.434Z,11.00
2019-01-03T10:47:47.666Z,10.77
2019-01-03T10:50:17.781Z,10.70
2019-01-03T10:52:47.682Z,12.10
2019-01-03T10:55:36.770Z,10.10
2019-01-03T11:01:20.528Z,11.10
2019-01-03T11:04:09.510Z,9.90
2019-01-03T11:06:39.616Z,11.13
2019-01-03T11:09:32.302Z,9.53
2019-01-03T11:12:02.678Z,10.10
2019-01-03T11:14:32.780Z,9.07
2019-01-03T11:17:21.936Z,9.40
2019-01-03T11:22:38.044Z,8.50
2019-01-03T11:28:37.262Z,11.10
2019-01-03T11:31:07.674Z,8.37
2019-01-03T11:33:37.707Z,8.40
2019-01-03T11:38:44.159Z,9.93
2019-01-03T11:41:14.362Z,8.47
2019-01-03T11:46:33.737Z,8.53
2019-01-03T11:49:03.874Z,9.60
2019-01-03T11:54:31.091Z,10.03
2019-01-03T11:57:01.108Z,9.10
2019-01-03T11:59:31.546Z,9.30
2019-01-03T12:02:02.326Z,10.17
2019-01-03T12:04:52.609Z,7.90
2019-01-03T12:07:22.968Z,9.23
2019-01-03T12:09:53.129Z,8.50
2019-01-03T12:12:23.273Z,8.23
2019-01-03T12:14:53.695Z,7.47
2019-01-03T12:17:24.454Z,8.20
2019-01-03T12:19:54.746Z,7.30
2019-01-03T12:22:44.232Z,7.97
2019-01-03T12:28:40.576Z,8.10
2019-01-03T12:34:08.377Z,16.17
2019-01-03T12:36:38.500Z,11.27
2019-01-03T12:39:09.015Z,16.67
2019-01-03T12:41:39.174Z,14.47
2019-01-03T12:44:28.373Z,11.60
2019-01-03T12:46:59.043Z,25.73
2019-01-03T12:49:29.822Z,20.87
2019-01-03T12:52:00.176Z,16.67
2019-01-03T12:54:30.502Z,16.47
2019-01-03T12:59:56.237Z,10.07
2019-01-03T13:02:26.542Z,8.17
2019-01-03T13:04:56.921Z,8.43
2019-01-03T13:10:56.529Z,11.30
2019-01-03T13:13:40.958Z,10.10
2019-01-03T13:16:23.509Z,8.60
2019-01-03T13:19:07.310Z,7.87
2019-01-03T13:21:51.534Z,9.40
2019-01-03T13:24:35.243Z,13.20
2019-01-03T13:27:16.813Z,11.53
2019-01-03T13:29:47.235Z,8.00
2019-01-03T13:32:17.645Z,9.10
2019-01-03T13:38:05.459Z,8.60
2019-01-03T13:43:56.155Z,8.88
2019-01-03T13:52:23.957Z,11.18
2019-01-03T13:54:55.560Z,10.60
2019-01-03T14:06:04.822Z,10.30
2019-01-03T14:08:54.942Z,11.08
2019-01-03T14:17:00.807Z,12.25
2019-01-03T14:19:30.944Z,12.60
2019-01-03T14:22:01.401Z,13.40
2019-01-03T14:24:31.584Z,14.95
2019-01-03T14:27:02.188Z,12.10
2019-01-03T14:44:06.517Z,15.08
2019-01-03T14:51:59.055Z,21.02
2019-01-03T14:54:29.071Z,15.80
2019-01-03T14:56:59.190Z,16.07
2019-01-03T14:59:29.110Z,14.75
2019-01-03T15:01:59.279Z,16.50
2019-01-03T15:04:29.321Z,16.20
2019-01-03T15:06:59.234Z,14.98
2019-01-03T15:26:19.524Z,14.90
2019-01-03T15:29:01.766Z,13.45
2019-01-03T15:31:43.437Z,14.50
2019-01-03T15:34:24.785Z,15.18
2019-01-03T15:37:05.918Z,17.02
2019-01-03T15:39:47.664Z,14.87
2019-01-03T15:42:28.798Z,14.20
2019-01-03T15:45:10.341Z,14.65
2019-01-03T15:47:51.827Z,15.38
2019-01-03T15:50:33.967Z,12.63
2019-01-03T15:56:01.251Z,11.18
2019-01-03T15:58:43.239Z,13.30
2019-01-03T16:01:25.480Z,11.33
2019-01-03T16:06:46.641Z,10.08
2019-01-03T16:09:29.641Z,11.60
2019-01-03T16:12:11.261Z,10.13
2019-01-03T16:23:19.342Z,7.75
2019-01-03T16:37:27.658Z,11.85
2019-01-03T16:43:23.186Z,8.80
2019-01-03T16:45:53.526Z,9.43
2019-01-03T16:48:24.018Z,9.90
2019-01-03T16:50:55.024Z,7.37
2019-01-03T16:53:26.716Z,7.60
2019-01-03T16:56:00.499Z,9.90
2019-01-03T16:58:31.087Z,9.60
2019-01-03T17:01:01.830Z,9.13
2019-01-03T17:03:32.562Z,10.78
2019-01-03T17:06:02.847Z,9.63
2019-01-03T17:08:33.228Z,9.68
2019-01-03T17:11:04.422Z,10.38
2019-01-03T17:13:35.248Z,9.70
2019-01-03T17:16:05.492Z,9.30
2019-01-03T17:18:36.330Z,10.13
2019-01-03T17:21:06.844Z,8.05
2019-01-03T17:23:37.221Z,10.82
2019-01-03T17:26:07.809Z,10.05
2019-01-03T17:28:38.285Z,9.25
2019-01-03T17:31:09.016Z,10.15
2019-01-03T17:33:40.147Z,9.53
2019-01-03T17:36:10.734Z,9.48
2019-01-03T17:38:41.080Z,9.05
2019-01-03T17:41:11.686Z,9.98
2019-01-03T17:43:43.415Z,11.38
2019-01-03T17:46:13.772Z,11.60
2019-01-03T17:48:44.423Z,11.85
2019-01-03T17:51:14.865Z,16.40
2019-01-03T17:53:45.970Z,14.38
2019-01-03T17:56:16.648Z,13.85
2019-01-03T17:58:46.923Z,10.50
2019-01-03T18:01:17.424Z,11.30
2019-01-03T18:03:47.997Z,12.33
2019-01-03T18:06:18.134Z,10.28
2019-01-03T18:08:48.302Z,9.73
2019-01-03T18:11:18.674Z,10.55
2019-01-03T18:13:49.168Z,10.45
2019-01-03T18:16:20.118Z,11.22
2019-01-03T18:18:50.638Z,10.70
2019-01-03T18:21:21.030Z,11.15
2019-01-03T18:23:51.357Z,14.78
2019-01-03T18:26:21.785Z,11.90
2019-01-03T18:28:52.470Z,14.83
2019-01-03T18:31:23.210Z,10.95
2019-01-03T18:33:54.360Z,10.95
2019-01-03T18:36:25.027Z,10.88
2019-01-03T18:38:57.126Z,10.93
2019-01-03T18:41:27.512Z,9.83
2019-01-03T18:43:58.207Z,10.50
2019-01-03T18:46:28.829Z,14.35
2019-01-03T18:48:59.586Z,12.82
2019-01-03T18:51:30.131Z,12.65
2019-01-03T18:54:00.713Z,12.40
2019-01-03T18:56:32.133Z,12.33
2019-01-03T18:59:02.537Z,10.45
2019-01-03T19:01:33.062Z,12.98
2019-01-03T19:04:03.812Z,10.88
2019-01-03T19:06:34.612Z,9.83
2019-01-03T19:09:06.872Z,10.40
2019-01-03T19:11:37.365Z,8.90
2019-01-03T19:14:08.043Z,10.55
2019-01-03T19:16:38.993Z,9.55
2019-01-03T19:19:09.895Z,10.75
2019-01-03T19:21:40.684Z,11.10
2019-01-03T19:24:11.294Z,9.53
2019-01-03T19:26:43.128Z,9.33
2019-01-03T19:29:13.417Z,9.65
2019-01-03T19:31:44.343Z,9.43
2019-01-03T19:34:14.956Z,9.20
2019-01-03T19:36:45.452Z,10.20
2019-01-03T19:39:16.196Z,12.25
2019-01-03T19:41:46.495Z,15.18
2019-01-03T19:44:16.968Z,11.53
2019-01-03T19:46:47.317Z,10.68
2019-01-03T19:49:17.779Z,12.47
2019-01-03T19:51:48.481Z,12.03
2019-01-03T19:54:19.031Z,13.25
2019-01-03T19:56:49.656Z,11.65
2019-01-03T19:59:20.143Z,13.25
2019-01-03T20:01:51.021Z,10.88
2019-01-03T20:04:21.242Z,7.85
2019-01-03T20:06:52.035Z,9.75
2019-01-03T20:09:22.952Z,9.93
2019-01-03T20:11:53.377Z,9.63
2019-01-03T20:14:26.878Z,8.30
2019-01-03T20:16:58.327Z,7.08
2019-01-03T20:19:28.640Z,9.20
2019-01-03T20:21:59.909Z,8.95
2019-01-03T20:24:30.903Z,9.75
2019-01-03T20:27:01.335Z,8.15
2019-01-03T20:29:31.665Z,7.85
2019-01-03T20:32:04.071Z,8.33
2019-01-03T20:34:34.912Z,9.85
2019-01-03T20:37:08.309Z,7.83
2019-01-03T20:39:38.650Z,6.40
2019-01-03T20:42:08.957Z,6.15
2019-01-03T20:44:40.190Z,7.35
2019-01-03T20:47:11.343Z,6.92
2019-01-03T20:49:41.682Z,7.22
2019-01-03T20:52:12.366Z,6.28
2019-01-03T20:54:42.786Z,6.15
2019-01-03T20:57:13.254Z,6.72
2019-01-03T20:59:44.527Z,7.60
2019-01-03T21:02:18.846Z,6.80
2019-01-03T21:04:49.432Z,8.35
2019-01-03T21:07:19.880Z,5.37
2019-01-03T21:09:50.228Z,7.35
2019-01-03T21:12:21.359Z,7.53
2019-01-03T21:14:51.674Z,7.65
2019-01-03T21:17:22.100Z,7.70
2019-01-03T21:19:52.885Z,8.05
2019-01-03T21:22:23.629Z,7.10
2019-01-03T21:24:55.441Z,7.85
2019-01-03T21:27:26.254Z,8.48
2019-01-03T21:29:57.396Z,8.83
2019-01-03T21:32:28.280Z,7.05
2019-01-03T21:34:58.847Z,9.25
2019-01-03T21:37:29.320Z,9.33
2019-01-03T21:39:59.743Z,8.18
2019-01-03T21:42:30.578Z,7.55
2019-01-03T21:45:01.171Z,8.18
2019-01-03T21:47:31.822Z,8.33
2019-01-03T21:50:02.733Z,8.45
2019-01-03T21:52:33.233Z,8.90
2019-01-03T21:55:03.740Z,9.03
2019-01-03T21:57:34.441Z,7.90
2019-01-03T22:00:05.618Z,8.30
2019-01-03T22:02:36.216Z,8.23
2019-01-03T22:05:06.979Z,10.18
2019-01-03T22:07:37.623Z,9.35
2019-01-03T22:10:09.674Z,9.18
2019-01-03T22:12:40.267Z,9.80
2019-01-03T22:15:12.110Z,8.48
2019-01-03T22:17:43.081Z,8.33
2019-01-03T22:20:13.756Z,8.95
2019-01-03T22:22:44.378Z,7.65
2019-01-03T22:25:15.108Z,9.70
2019-01-03T22:27:45.715Z,9.83
2019-01-03T22:30:16.302Z,7.92
2019-01-03T22:32:46.902Z,8.40
2019-01-03T22:35:17.419Z,9.85
2019-01-03T22:37:48.968Z,8.73
2019-01-03T22:40:19.692Z,9.55
2019-01-03T22:42:50.447Z,9.73
2019-01-03T22:45:21.039Z,8.70
2019-01-03T22:47:51.863Z,9.65
2019-01-03T22:50:22.620Z,9.20
2019-01-03T22:52:53.161Z,10.18
2019-01-03T22:55:23.743Z,8.70
2019-01-03T22:57:54.561Z,9.85
2019-01-03T23:00:35.521Z,9.73
2019-01-03T23:03:06.174Z,8.20
2019-01-03T23:05:37.009Z,8.05
2019-01-03T23:08:07.778Z,7.97
